createdAt,value
2019-06-10T00:00:23.919Z,5.30
2019-06-10T00:05:31.320Z,5.60
2019-06-10T00:10:42.259Z,5.60
2019-06-10T00:15:51.514Z,5.73
2019-06-10T00:21:01.949Z,5.20
2019-06-10T00:26:12.184Z,5.37
2019-06-10T00:31:20.612Z,5.57
2019-06-10T00:36:30.747Z,5.50
2019-06-10T00:41:37.638Z,9.70
2019-06-10T00:46:46.434Z,22.20
2019-06-10T00:51:54.874Z,10.93
2019-06-10T00:57:04.094Z,9.83
2019-06-10T01:02:14.309Z,8.57
2019-06-10T01:07:21.935Z,6.53
2019-06-10T01:12:31.611Z,6.10
2019-06-10T01:17:41.728Z,5.87
2019-06-10T01:22:51.248Z,5.43
2019-06-10T01:28:00.596Z,5.30
2019-06-10T01:33:08.696Z,5.70
2019-06-10T01:38:18.370Z,5.90
2019-06-10T01:43:27.181Z,5.20
2019-06-10T01:48:44.133Z,6.07
2019-06-10T01:53:44.763Z,6.00
2019-06-10T01:58:52.031Z,6.37
2019-06-10T02:04:00.892Z,6.33
2019-06-10T02:09:13.349Z,6.10
2019-06-10T02:14:20.352Z,6.20
2019-06-10T02:19:28.238Z,6.53
2019-06-10T02:24:36.260Z,6.70
2019-06-10T02:29:43.977Z,6.97
2019-06-10T02:35:03.520Z,6.53
2019-06-10T02:40:04.090Z,6.67
2019-06-10T02:45:17.361Z,7.60
2019-06-10T02:50:32.119Z,7.13
2019-06-10T02:55:35.111Z,7.33
2019-06-10T03:00:48.615Z,6.93
2019-06-10T03:05:53.683Z,7.27
2019-06-10T03:11:03.872Z,7.60
2019-06-10T03:16:17.795Z,7.93
2019-06-10T03:21:26.808Z,7.47
2019-06-10T03:26:44.471Z,7.20
2019-06-10T03:31:55.144Z,8.10
2019-06-10T03:37:02.460Z,7.73
2019-06-10T03:42:12.578Z,8.43
2019-06-10T03:47:21.809Z,8.23
2019-06-10T03:52:32.464Z,7.63
2019-06-10T03:57:42.105Z,8.67
2019-06-10T04:02:48.611Z,8.00
2019-06-10T04:07:55.936Z,8.73
2019-06-10T04:13:03.326Z,8.80
2019-06-10T04:18:14.246Z,8.53
2019-06-10T04:23:23.818Z,8.13
2019-06-10T04:28:33.484Z,8.90
2019-06-10T04:33:58.517Z,8.87
2019-06-10T04:39:07.951Z,9.07
2019-06-10T04:44:15.234Z,9.23
2019-06-10T04:49:28.644Z,9.60
2019-06-10T04:54:56.242Z,9.57
2019-06-10T05:00:11.291Z,9.97
2019-06-10T05:05:15.782Z,10.17
2019-06-10T05:10:26.437Z,10.77
2019-06-10T05:15:35.713Z,9.63
2019-06-10T05:21:04.753Z,10.10
2019-06-10T05:26:13.391Z,9.80
2019-06-10T05:36:28.653Z,9.87
2019-06-10T05:41:39.496Z,10.00
2019-06-10T05:47:07.093Z,10.07
2019-06-10T05:52:14.583Z,9.97
2019-06-10T05:57:25.771Z,10.43
2019-06-10T06:02:35.408Z,9.57
2019-06-10T06:07:42.648Z,9.77
2019-06-10T06:12:52.672Z,10.30
2019-06-10T06:18:09.420Z,9.30
2019-06-10T06:23:12.253Z,9.27
2019-06-10T06:28:19.829Z,9.03
2019-06-10T06:33:29.365Z,9.03
2019-06-10T06:38:38.380Z,9.20
2019-06-10T06:43:45.945Z,9.07
2019-06-10T06:48:53.476Z,9.13
2019-06-10T06:54:03.100Z,8.87
2019-06-10T06:59:09.936Z,8.60
2019-06-10T07:04:19.287Z,12.97
2019-06-10T07:09:33.076Z,8.10
2019-06-10T07:14:44.941Z,7.17
2019-06-10T07:19:52.986Z,6.30
2019-06-10T07:25:06.320Z,5.87
2019-06-10T07:30:15.207Z,6.70
2019-06-10T07:35:22.781Z,5.97
2019-06-10T07:40:33.399Z,6.50
2019-06-10T07:45:45.452Z,5.83
2019-06-10T07:50:53.215Z,5.87
2019-06-10T07:56:02.928Z,8.27
2019-06-10T08:01:27.644Z,5.70
2019-06-10T08:06:36.430Z,5.30
2019-06-10T08:11:48.289Z,5.37
2019-06-10T08:16:54.131Z,5.23
2019-06-10T08:22:03.050Z,5.60
2019-06-10T08:27:12.067Z,5.50
2019-06-10T08:32:20.243Z,5.67
2019-06-10T08:37:28.370Z,5.77
2019-06-10T08:42:36.579Z,6.43
2019-06-10T08:47:46.888Z,8.47
2019-06-10T08:53:09.138Z,5.50
2019-06-10T08:58:02.940Z,5.87
2019-06-10T09:03:12.456Z,6.17
2019-06-10T09:08:20.370Z,5.80
2019-06-10T09:13:28.073Z,5.37
2019-06-10T09:18:36.308Z,5.03
2019-06-10T09:23:49.547Z,5.60
2019-06-10T09:28:56.471Z,5.77
2019-06-10T09:34:04.435Z,5.33
2019-06-10T09:39:13.133Z,5.67
2019-06-10T09:44:22.899Z,5.97
2019-06-10T09:49:41.321Z,6.30
2019-06-10T09:54:56.284Z,5.83
2019-06-10T09:59:59.210Z,6.27
2019-06-10T10:05:10.989Z,6.43
2019-06-10T10:10:24.008Z,5.70
2019-06-10T10:15:34.598Z,6.10
2019-06-10T10:20:44.865Z,5.17
2019-06-10T10:25:56.250Z,5.93
2019-06-10T10:31:03.563Z,5.13
2019-06-10T10:36:13.253Z,5.00
2019-06-10T10:41:23.207Z,5.20
2019-06-10T10:46:32.626Z,5.30
2019-06-10T10:51:41.011Z,5.10
2019-06-10T10:56:49.621Z,5.30
2019-06-10T11:01:58.482Z,5.90
2019-06-10T11:07:05.878Z,5.37
2019-06-10T11:12:15.202Z,4.90
2019-06-10T11:17:23.470Z,6.07
2019-06-10T11:22:32.890Z,6.00
2019-06-10T11:27:39.981Z,6.23
2019-06-10T11:32:47.958Z,7.30
2019-06-10T11:37:56.691Z,6.50
2019-06-10T11:43:04.705Z,6.10
2019-06-10T11:48:12.946Z,6.13
2019-06-10T11:53:22.914Z,7.17
2019-06-10T11:58:33.338Z,7.10
2019-06-10T12:03:43.239Z,7.50
2019-06-10T12:08:54.129Z,7.83
2019-06-10T12:14:03.880Z,7.03
2019-06-10T12:19:12.546Z,7.83
2019-06-10T12:24:22.888Z,7.17
2019-06-10T12:29:30.577Z,7.37
2019-06-10T12:34:38.544Z,6.97
2019-06-10T12:40:12.879Z,7.80
2019-06-10T12:45:23.353Z,9.20
2019-06-10T12:50:31.100Z,7.70
2019-06-10T12:55:44.463Z,7.43
2019-06-10T13:00:49.525Z,8.33
2019-06-10T13:06:04.697Z,7.93
2019-06-10T13:11:12.546Z,10.70
2019-06-10T13:16:19.094Z,7.90
2019-06-10T13:21:26.633Z,8.60
2019-06-10T13:26:36.138Z,8.70
2019-06-10T13:31:44.851Z,9.07
2019-06-10T13:36:53.157Z,9.10
2019-06-10T13:42:06.871Z,8.13
2019-06-10T13:47:14.901Z,8.37
2019-06-10T13:52:24.552Z,8.20
2019-06-10T13:57:33.263Z,9.00
2019-06-10T14:02:42.967Z,9.53
2019-06-10T14:07:52.105Z,9.40
2019-06-10T14:12:59.314Z,8.73
2019-06-10T14:18:08.921Z,9.27
2019-06-10T14:23:17.659Z,9.80
2019-06-10T14:28:40.038Z,11.90
2019-06-10T14:33:35.411Z,9.77
2019-06-10T14:38:43.113Z,10.17
2019-06-10T14:43:52.964Z,9.70
2019-06-10T14:48:59.607Z,10.37
2019-06-10T14:54:09.355Z,10.20
2019-06-10T14:59:18.832Z,11.33
2019-06-10T15:04:26.924Z,10.33
2019-06-10T15:09:35.198Z,14.43
2019-06-10T15:14:43.428Z,9.83
2019-06-10T15:19:53.038Z,8.77
2019-06-10T15:25:03.220Z,8.83
2019-06-10T15:30:20.645Z,8.70
2019-06-10T15:35:24.327Z,8.97
2019-06-10T15:40:32.530Z,8.93
2019-06-10T15:45:40.020Z,9.67
2019-06-10T15:50:48.365Z,9.20
2019-06-10T15:56:13.081Z,10.40
2019-06-10T16:01:07.261Z,9.67
2019-06-10T16:06:15.986Z,9.17
2019-06-10T16:11:44.316Z,9.50
2019-06-10T16:16:52.583Z,9.23
2019-06-10T16:22:03.259Z,9.43
2019-06-10T16:27:12.628Z,9.43
2019-06-10T16:32:23.209Z,9.53
2019-06-10T16:37:32.669Z,9.00
2019-06-10T16:42:39.677Z,10.70
2019-06-10T16:47:47.078Z,11.33
2019-06-10T16:52:55.846Z,10.33
2019-06-10T16:58:08.271Z,9.60
2019-06-10T17:03:28.679Z,9.37
2019-06-10T17:08:36.655Z,9.37
2019-06-10T17:13:44.890Z,9.30
2019-06-10T17:18:52.201Z,10.50
2019-06-10T17:23:59.686Z,11.00
2019-06-10T17:29:07.826Z,10.73
2019-06-10T17:34:15.172Z,9.73
2019-06-10T17:39:34.516Z,10.97
2019-06-10T17:44:42.862Z,10.40
2019-06-10T17:49:50.275Z,11.23
2019-06-10T17:54:58.749Z,10.03
2019-06-10T18:00:14.778Z,9.83
2019-06-10T18:05:22.519Z,14.53
2019-06-10T18:10:33.198Z,10.77
2019-06-10T18:15:41.559Z,10.83
2019-06-10T18:20:49.375Z,10.83
2019-06-10T18:25:58.730Z,11.00
2019-06-10T18:31:08.124Z,11.20
2019-06-10T18:36:36.281Z,10.57
2019-06-10T18:41:46.025Z,10.83
2019-06-10T18:46:53.695Z,11.10
2019-06-10T18:52:01.886Z,12.87
2019-06-10T18:57:09.190Z,14.27
2019-06-10T19:02:17.939Z,12.77
2019-06-10T19:07:26.160Z,12.73
2019-06-10T19:12:37.031Z,15.83
2019-06-10T19:17:53.717Z,13.53
2019-06-10T19:23:02.689Z,12.77
2019-06-10T19:28:12.200Z,8.50
2019-06-10T19:33:23.633Z,5.77
2019-06-10T19:38:38.425Z,4.80
2019-06-10T19:43:46.068Z,4.57
2019-06-10T19:48:59.468Z,4.20
2019-06-10T19:54:03.521Z,3.60
2019-06-10T19:59:09.784Z,2.97
2019-06-10T20:04:18.145Z,3.03
2019-06-10T20:09:27.141Z,2.90
2019-06-10T20:14:34.904Z,3.60
2019-06-10T20:19:44.407Z,6.90
2019-06-10T20:24:52.335Z,3.83
2019-06-10T20:30:07.848Z,3.67
2019-06-10T20:35:08.179Z,3.60
2019-06-10T20:40:16.805Z,4.10
2019-06-10T20:45:24.618Z,4.80
2019-06-10T20:50:32.562Z,4.47
2019-06-10T20:55:49.056Z,4.53
2019-06-10T21:00:53.899Z,6.50
2019-06-10T21:05:59.691Z,4.50
2019-06-10T21:11:06.592Z,3.70
2019-06-10T21:16:15.664Z,4.53
2019-06-10T21:21:23.371Z,3.87
2019-06-10T21:26:32.714Z,4.17
2019-06-10T21:31:41.729Z,4.77
2019-06-10T21:36:49.632Z,4.27
2019-06-10T21:41:57.285Z,5.57
2019-06-10T21:47:05.915Z,5.40
2019-06-10T21:52:13.849Z,6.27
2019-06-10T21:57:22.081Z,6.23
2019-06-10T22:02:29.042Z,5.93
2019-06-10T22:07:35.846Z,6.00
2019-06-10T22:12:43.913Z,6.30
2019-06-10T22:17:53.338Z,6.60
2019-06-10T22:23:02.996Z,6.77
2019-06-10T22:28:10.177Z,6.63
2019-06-10T22:33:17.783Z,7.53
2019-06-10T22:38:24.608Z,9.70
2019-06-10T22:43:33.135Z,9.77
2019-06-10T23:09:26.947Z,11.00
2019-06-10T23:14:34.285Z,11.00
2019-06-10T23:19:42.898Z,10.70
2019-06-10T23:24:51.335Z,10.50
2019-06-10T23:30:00.306Z,10.30
2019-06-10T23:35:08.842Z,10.60
2019-06-10T23:40:16.949Z,10.33
2019-06-10T23:45:25.060Z,10.83
2019-06-10T23:50:33.020Z,11.17
2019-06-10T23:55:42.530Z,11.93
